Cape Star — VRFM2 — position and weather

sailwx.info

Track history (hours):
 
Tides and Currents Weather Stations Pressure Air Temp Water Temp Dewpoint Dewpoint Depression Visibility Wind Speed Wind Dir Waves Ship Positions

Cape Star

Last reported at 2018-Feb-24 20:51 UTC. Time now 2018-Feb-26 02:03 UTC.
Position N 36°22' E 014°52'.

Length 292 m; draft 17.8 m.

Type: Cargo ship. MMSI: 477826100.

Date/timePositionNaut miles runAvg speedWind from/ knotsBaromVisibWave heightAir tempDewpointWater temp
2018-Feb-24 20:51N 36°22' E 014°52'411.8
2018-Feb-24 20:30N 36°23' E 014°47'611.7
2018-Feb-24 20:00N 36°25' E 014°40'611.5
2018-Feb-24 19:30N 36°26' E 014°33'611.3
2018-Feb-24 19:00N 36°28' E 014°27'611.3
2018-Feb-24 18:30N 36°30' E 014°20'611.4
2018-Feb-24 18:00N 36°32' E 014°13'511.2
2018-Feb-24 17:31N 36°33' E 014°07'  
2018-Feb-21 07:29N 35°59' W 005°09'714.1
2018-Feb-21 07:00N 35°59' W 005°18'714.1
2018-Feb-21 06:30N 35°58' W 005°26'1213.3
2018-Feb-21 05:34N 35°55' W 005°41'  
Track history (hours):
 
Tides and Currents Weather Stations Pressure Air Temp Water Temp Dewpoint Dewpoint Depression Visibility Wind Speed Wind Dir Waves Ship Positions

Cape Star

Last reported at 2018-Feb-24 20:51 UTC. Time now 2018-Feb-26 02:03 UTC.
Position N 36°22' E 014°52'.

Length 292 m; draft 17.8 m.

Type: Cargo ship. MMSI: 477826100.

Date/timePositionNaut miles runAvg speedWind from/ knotsBaromVisibWave heightAir tempDewpointWater temp
2018-Feb-24 20:51N 36°22' E 014°52'411.8
2018-Feb-24 20:30N 36°23' E 014°47'611.7
2018-Feb-24 20:00N 36°25' E 014°40'611.5
2018-Feb-24 19:30N 36°26' E 014°33'611.3
2018-Feb-24 19:00N 36°28' E 014°27'611.3
2018-Feb-24 18:30N 36°30' E 014°20'611.4
2018-Feb-24 18:00N 36°32' E 014°13'511.2
2018-Feb-24 17:31N 36°33' E 014°07'  
2018-Feb-21 07:29N 35°59' W 005°09'714.1
2018-Feb-21 07:00N 35°59' W 005°18'714.1
2018-Feb-21 06:30N 35°58' W 005°26'1213.3
2018-Feb-21 05:34N 35°55' W 005°41'  

Dump ship's entire track history